Diamantgracht — PBLQ — position and weather

sailwx.info

Track history (hours):
 
Tides and Currents Weather Stations Pressure Air Temp Water Temp Dewpoint Dewpoint Depression Visibility Wind Speed Wind Dir Waves Ship Positions

Diamantgracht

Last reported at 2018-May-20 05:31 UTC. Time now 2018-May-23 03:38 UTC.
Position N 58°21' E 011°54'.

Length 157 m; draft 7.6 m.

Type: Cargo ship. MMSI: 244142000.

Date/timePositionNaut miles runAvg speedWind from/ knotsBaromVisibWave heightAir tempDewpointWater temp
2018-May-20 05:31N 58°21' E 011°54'0 0.1
2018-May-20 05:13N 58°21' E 011°54'0 0.1
2018-May-20 04:58N 58°21' E 011°54'0 0.1
2018-May-20 04:25N 58°21' E 011°54'3 0.1
2018-May-18 07:53N 58°19' E 011°49'610.6
2018-May-18 07:19N 58°13' E 011°51'414.0
2018-May-18 07:00N 58°09' E 011°51'510.8
2018-May-18 06:30N 58°04' E 011°47'510.8
2018-May-18 06:00N 57°59' E 011°44'612.5
2018-May-18 05:30N 57°55' E 011°35'713.4
2018-May-18 05:00N 57°51' E 011°25'4 7.8
2018-May-18 04:30N 57°49' E 011°19'4 8.7
2018-May-18 04:00N 57°46' E 011°12'4 8.8
2018-May-18 03:30N 57°44' E 011°05'4 8.6
2018-May-18 03:00N 57°42' E 010°58'4 8.5
2018-May-18 02:30N 57°41' E 010°50'4 8.7
2018-May-18 02:00N 57°41' E 010°42'4 7.6
2018-May-18 01:30N 57°42' E 010°36'0 0.2
2018-May-18 01:00N 57°42' E 010°35'0 0.0
2018-May-18 00:30N 57°42' E 010°35'0 0.0
2018-May-18 00:00N 57°42' E 010°35'0 0.0
2018-May-17 23:30N 57°42' E 010°35'0 0.0
2018-May-17 22:54N 57°42' E 010°35'0 0.0
2018-May-17 22:30N 57°42' E 010°35'0 0.0
2018-May-17 22:00N 57°42' E 010°35'0 0.0
2018-May-17 21:30N 57°42' E 010°35'0 0.0
2018-May-17 20:54N 57°42' E 010°35'0 0.1
2018-May-17 20:30N 57°42' E 010°35'0 0.0
2018-May-17 20:00N 57°42' E 010°35'0 0.0
2018-May-17 19:30N 57°42' E 010°35'0 0.0
2018-May-17 18:57N 57°42' E 010°35'0 0.0
2018-May-17 18:24N 57°42' E 010°35'0 0.0
2018-May-17 18:00N 57°42' E 010°35'0 0.3
2018-May-17 17:30N 57°42' E 010°36'2 3.4
2018-May-17 17:00N 57°41' E 010°38'3 6.8
2018-May-17 16:30N 57°43' E 010°44'4 8.9
2018-May-17 16:00N 57°47' E 010°41'714.4
2018-May-17 15:30N 57°47' E 010°27'814.1
2018-May-17 14:58N 57°45' E 010°14'16210.8
2018-May-17 00:01N 55°33' E 007°23'0 9.4
2018-May-17 00:00N 55°33' E 007°23'2210.6
2018-May-16 21:58N 55°25' E 007°58'612.1
2018-May-16 21:30N 55°24' E 008°08'510.1
2018-May-16 21:00N 55°26' E 008°16'510.4
2018-May-16 20:30N 55°29' E 008°24'2 2.6
2018-May-16 19:51N 55°28' E 008°26'0 0.0
2018-May-16 18:48N 55°28' E 008°26'0 0.0
2018-May-16 18:21N 55°28' E 008°26'0 0.0
2018-May-16 17:51N 55°28' E 008°26'0 0.0
2018-May-16 17:06N 55°28' E 008°26'0 0.0
2018-May-16 16:51N 55°28' E 008°26'0 0.0
2018-May-16 16:21N 55°28' E 008°26'0 0.0
2018-May-16 15:54N 55°28' E 008°26'0 0.0
2018-May-16 15:24N 55°28' E 008°26'0 0.0
2018-May-16 14:54N 55°28' E 008°26'0 0.0
2018-May-16 14:27N 55°28' E 008°26'0 0.0
2018-May-16 13:42N 55°28' E 008°26'0 0.0
2018-May-16 13:27N 55°28' E 008°26'0 0.0
2018-May-16 13:00N 55°28' E 008°26'0 0.0
2018-May-16 12:21N 55°28' E 008°26'0 0.0
2018-May-16 12:00N 55°28' E 008°26'0 0.0
2018-May-16 11:24N 55°28' E 008°26'0 0.0
2018-May-16 11:00N 55°28' E 008°26'0 0.0
2018-May-16 10:27N 55°28' E 008°26'0 0.0
2018-May-16 09:54N 55°28' E 008°26'0 0.0
2018-May-16 09:15N 55°28' E 008°26'0 0.0
2018-May-16 09:00N 55°28' E 008°26'0 0.0
2018-May-16 08:30N 55°28' E 008°26'0 0.0
2018-May-16 08:00N 55°28' E 008°26'0 0.0
2018-May-16 07:30N 55°28' E 008°26'0 0.0
2018-May-16 06:57N 55°28' E 008°26'0 0.0
2018-May-16 06:30N 55°28' E 008°26'0 0.0
2018-May-16 06:00N 55°28' E 008°26'0 0.0
2018-May-16 05:30N 55°28' E 008°26'0 0.0
2018-May-16 05:00N 55°28' E 008°26'0 0.0
2018-May-16 04:22N 55°28' E 008°26'0 0.0
2018-May-16 03:57N 55°28' E 008°26'0 0.0
2018-May-16 03:27N 55°28' E 008°26'0 0.0
2018-May-16 03:00N 55°28' E 008°26'0 0.0
2018-May-16 02:30N 55°28' E 008°26'0 0.0
2018-May-16 01:54N 55°28' E 008°26'0 0.0
2018-May-16 01:30N 55°28' E 008°26'0 0.0
2018-May-16 01:00N 55°28' E 008°26'0 0.0
2018-May-16 00:27N 55°28' E 008°26'0 0.0
2018-May-15 23:57N 55°28' E 008°26'0 0.0
2018-May-15 23:30N 55°28' E 008°26'0 0.0
2018-May-15 22:57N 55°28' E 008°26'0 0.0
2018-May-15 22:27N 55°28' E 008°26'0 0.0
2018-May-15 21:51N 55°28' E 008°26'0 0.0
2018-May-15 21:30N 55°28' E 008°26'0 0.0
2018-May-15 20:45N 55°28' E 008°26'0 0.0
2018-May-15 20:12N 55°28' E 008°26'0 0.0
2018-May-15 20:00N 55°28' E 008°26'0 0.0
2018-May-15 19:30N 55°28' E 008°26'0 0.0
2018-May-15 19:00N 55°28' E 008°26'0 0.0
2018-May-15 18:27N 55°28' E 008°26'0 0.0
2018-May-15 18:00N 55°28' E 008°26'0 0.0
2018-May-15 17:15N 55°28' E 008°26'0 0.0
2018-May-15 17:00N 55°28' E 008°26'0 0.0
2018-May-15 16:15N 55°28' E 008°26'0 0.0
2018-May-15 15:48N 55°28' E 008°26'0 0.0
2018-May-15 15:18N 55°28' E 008°26'0 0.0
2018-May-15 14:48N 55°28' E 008°26'0 0.0
2018-May-15 14:30N 55°28' E 008°26'0 0.0
2018-May-15 13:48N 55°28' E 008°26'0 0.0
2018-May-15 13:21N 55°28' E 008°26'0 0.0
2018-May-15 12:54N 55°28' E 008°26'0 0.0
2018-May-15 12:18N 55°28' E 008°26'0 0.0
2018-May-15 11:54N 55°28' E 008°26'0 0.0
2018-May-15 11:21N 55°28' E 008°26'0 0.0
2018-May-15 10:54N 55°28' E 008°26'0 0.0
2018-May-15 10:24N 55°28' E 008°26'0 0.0
2018-May-15 09:54N 55°28' E 008°26'0 0.0
2018-May-15 09:27N 55°28' E 008°26'0 0.0
2018-May-15 08:39N 55°28' E 008°26'0 0.0
2018-May-15 08:27N 55°28' E 008°26'0 0.0
2018-May-15 07:42N 55°28' E 008°26'0 0.0
2018-May-15 07:15N 55°28' E 008°26'0 0.0
2018-May-15 06:57N 55°28' E 008°26'0 0.0
2018-May-15 06:27N 55°28' E 008°26'0 0.0
2018-May-15 06:00N 55°28' E 008°26'0 0.0
2018-May-15 05:30N 55°28' E 008°26'0 0.0
2018-May-15 05:00N 55°28' E 008°26'0 0.0
2018-May-15 04:27N 55°28' E 008°26'0 0.0
2018-May-15 03:57N 55°28' E 008°26'0 0.0
2018-May-15 03:27N 55°28' E 008°26'0 0.0
2018-May-15 03:00N 55°28' E 008°26'0 0.0
2018-May-15 02:18N 55°28' E 008°26'0 0.0
2018-May-15 01:45N 55°28' E 008°26'0 0.0
2018-May-15 01:21N 55°28' E 008°26'0 0.0
2018-May-15 00:48N 55°28' E 008°26'0 0.0
2018-May-15 00:18N 55°28' E 008°26'0 0.0
2018-May-14 23:33N 55°28' E 008°26'0 0.0
2018-May-14 23:21N 55°28' E 008°26'0 0.0
2018-May-14 22:51N 55°28' E 008°26'0 0.0
2018-May-14 22:18N 55°28' E 008°26'0 0.0
2018-May-14 21:36N 55°28' E 008°26'0 0.0
2018-May-14 19:51N 55°28' E 008°26'0 0.0
2018-May-14 19:09N 55°28' E 008°26'0 0.0
2018-May-14 18:51N 55°28' E 008°26'0 0.0
2018-May-14 18:24N 55°28' E 008°26'0 0.0
2018-May-14 17:57N 55°28' E 008°26'0 0.0
2018-May-14 17:24N 55°28' E 008°26'0 0.0
2018-May-14 17:00N 55°28' E 008°26'0 0.0
2018-May-14 16:30N 55°28' E 008°26'0 0.0
2018-May-14 15:54N 55°28' E 008°26'0 0.0
2018-May-14 15:30N 55°28' E 008°26'0 0.0
2018-May-14 14:57N 55°28' E 008°26'0 0.0
2018-May-14 14:27N 55°28' E 008°26'0 0.0
2018-May-14 13:48N 55°28' E 008°26'0 0.0
2018-May-14 13:30N 55°28' E 008°26'0 0.0
2018-May-14 13:00N 55°28' E 008°26'0 0.0
2018-May-14 12:18N 55°28' E 008°26'0 0.0
2018-May-14 11:33N 55°28' E 008°26'0 0.0
2018-May-14 11:15N 55°28' E 008°26'0 0.0
2018-May-14 10:51N 55°28' E 008°26'0 0.0
2018-May-14 10:21N 55°28' E 008°26'0 0.0
2018-May-14 09:51N 55°28' E 008°26'0 0.0
2018-May-14 09:18N 55°28' E 008°26'0 0.0
2018-May-14 08:57N 55°28' E 008°26'0 0.0
2018-May-14 08:27N 55°28' E 008°26'0 0.0
2018-May-14 08:00N 55°28' E 008°26'0 0.0
2018-May-14 07:30N 55°28' E 008°26'0 0.0
2018-May-14 07:00N 55°28' E 008°26'0 0.0
2018-May-14 06:27N 55°28' E 008°26'0 0.0
2018-May-14 06:00N 55°28' E 008°26'0 0.0
2018-May-14 05:30N 55°28' E 008°26'0 0.0
2018-May-14 04:57N 55°28' E 008°26'0 0.0
2018-May-14 04:24N 55°28' E 008°26'0 0.0
2018-May-14 03:57N 55°28' E 008°26'0 0.0
2018-May-14 03:27N 55°28' E 008°26'0 0.0
2018-May-14 02:57N 55°28' E 008°26'0 0.0
2018-May-14 02:30N 55°28' E 008°26'0 0.0
2018-May-14 01:57N 55°28' E 008°26'0 0.0
2018-May-14 01:27N 55°28' E 008°26'0 0.0
2018-May-14 01:00N 55°28' E 008°26'0 0.0
2018-May-14 00:27N 55°28' E 008°26'0 0.0
2018-May-13 23:48N 55°28' E 008°26'0 0.0
2018-May-13 23:30N 55°28' E 008°26'0 0.0
2018-May-13 23:00N 55°28' E 008°26'0 0.0
2018-May-13 22:30N 55°28' E 008°26'0 0.0
2018-May-13 22:00N 55°28' E 008°26'0 0.0
2018-May-13 21:30N 55°28' E 008°26'0 0.0
2018-May-13 20:36N 55°28' E 008°26'0 0.0
2018-May-13 20:15N 55°28' E 008°26'0 0.0
2018-May-13 20:00N 55°28' E 008°26'0 0.0
2018-May-13 19:21N 55°28' E 008°26'0 0.0
2018-May-13 18:36N 55°28' E 008°26'0 0.0
2018-May-13 18:09N 55°28' E 008°26'0 0.0
2018-May-13 17:33N 55°28' E 008°26'0 0.0
2018-May-13 17:24N 55°28' E 008°26'0 0.0
2018-May-13 16:54N 55°28' E 008°26'0 0.0
2018-May-13 16:24N 55°28' E 008°26'0 0.0
2018-May-13 15:39N 55°28' E 008°26'0 0.0
2018-May-13 15:12N 55°28' E 008°26'0 0.0
2018-May-13 14:57N 55°28' E 008°26'0 0.0
2018-May-13 14:27N 55°28' E 008°26'0 0.0
2018-May-13 13:57N 55°28' E 008°26'0 0.0
2018-May-13 13:27N 55°28' E 008°26'0 0.0
2018-May-13 12:57N 55°28' E 008°26'0 0.0
2018-May-13 12:27N 55°28' E 008°26'0 0.0
2018-May-13 11:57N 55°28' E 008°26'0 0.0
2018-May-13 11:27N 55°28' E 008°26'0 0.0
2018-May-13 10:45N 55°28' E 008°26'0 0.0
2018-May-13 10:30N 55°28' E 008°26'0 0.0
2018-May-13 09:15N 55°28' E 008°26'0 0.0
2018-May-13 09:00N 55°28' E 008°26'0 0.0
2018-May-13 08:03N 55°28' E 008°26'0 0.0
2018-May-13 08:00N 55°28' E 008°26'0 0.0
2018-May-13 07:30N 55°28' E 008°26'0 0.0
2018-May-13 07:00N 55°28' E 008°26'0 0.0
2018-May-13 06:27N 55°28' E 008°26'0 0.0
2018-May-13 06:00N 55°28' E 008°26'0 0.0
2018-May-13 05:30N 55°28' E 008°26'0 0.0
2018-May-13 05:00N 55°28' E 008°26'0 0.0
2018-May-13 04:21N 55°28' E 008°26'0 0.0
2018-May-13 03:51N 55°28' E 008°26'0 0.0
2018-May-13 03:27N 55°28' E 008°26'0 0.0
2018-May-13 02:54N 55°28' E 008°26'0 0.0
2018-May-13 02:30N 55°28' E 008°26'0 0.0
2018-May-13 01:54N 55°28' E 008°26'0 0.0
2018-May-13 01:30N 55°28' E 008°26'0 0.0
2018-May-13 00:54N 55°28' E 008°26'0 0.0
2018-May-13 00:21N 55°28' E 008°26'0 0.0
2018-May-12 23:54N 55°28' E 008°26'0 0.0
2018-May-12 23:27N 55°28' E 008°26'0 0.0
2018-May-12 22:54N 55°28' E 008°26'0 0.0
2018-May-12 22:24N 55°28' E 008°26'0 0.0
2018-May-12 22:00N 55°28' E 008°26'0 0.0
2018-May-12 21:24N 55°28' E 008°26'0 0.0
2018-May-12 20:54N 55°28' E 008°26'0 0.0
2018-May-12 20:30N 55°28' E 008°26'0 0.0
2018-May-12 19:30N 55°28' E 008°26'0 0.0
2018-May-12 18:48N 55°28' E 008°26'0 0.0
2018-May-12 18:18N 55°28' E 008°26'0 0.0
2018-May-12 17:48N 55°28' E 008°26'0 0.0
2018-May-12 17:30N 55°28' E 008°26'0 0.0
2018-May-12 16:48N 55°28' E 008°26'0 0.0
2018-May-12 16:21N 55°28' E 008°26'0 0.0
2018-May-12 16:00N 55°28' E 008°26'0 0.0
2018-May-12 15:30N 55°28' E 008°26'0 0.0
2018-May-12 15:00N 55°28' E 008°26'0 0.0
2018-May-12 14:21N 55°28' E 008°26'0 0.0
2018-May-12 13:36N 55°28' E 008°26'0 0.0
2018-May-12 13:24N 55°28' E 008°26'0 0.0
2018-May-12 12:51N 55°28' E 008°26'0 0.0
2018-May-12 12:18N 55°28' E 008°26'0 0.0
2018-May-12 11:54N 55°28' E 008°26'0 0.0
2018-May-12 11:24N 55°28' E 008°26'0 0.0
2018-May-12 10:51N 55°28' E 008°26'0 0.0
2018-May-12 10:12N 55°28' E 008°26'0 0.0
2018-May-12 09:54N 55°28' E 008°26'0 0.0
2018-May-12 09:27N 55°28' E 008°26'0 0.0
2018-May-12 08:54N 55°28' E 008°26'0 0.0
2018-May-12 08:24N 55°28' E 008°26'0 0.0
2018-May-12 07:57N 55°28' E 008°26'0 0.0
2018-May-12 07:24N 55°28' E 008°26'0 0.0
2018-May-12 07:00N 55°28' E 008°26'0 0.0
2018-May-12 06:27N 55°28' E 008°26'0 0.0
2018-May-12 06:00N 55°28' E 008°26'0 0.0
2018-May-12 05:30N 55°28' E 008°26'0 0.0
2018-May-12 05:00N 55°28' E 008°26'0 0.0
2018-May-12 04:30N 55°28' E 008°26'0 0.0
2018-May-12 04:00N 55°28' E 008°26'0 0.0
2018-May-12 03:18N 55°28' E 008°26'0 0.0
2018-May-12 03:00N 55°28' E 008°26'0 0.0
2018-May-12 02:18N 55°28' E 008°26'0 0.0
2018-May-12 02:00N 55°28' E 008°26'0 0.0
2018-May-12 01:18N 55°28' E 008°26'0 0.0
2018-May-12 00:48N 55°28' E 008°26'0 0.0
2018-May-12 00:21N 55°28' E 008°26'0 0.0
2018-May-11 23:51N 55°28' E 008°26'0 0.0
2018-May-11 23:21N 55°28' E 008°26'0 0.0
2018-May-11 23:00N 55°28' E 008°26'0 0.0
2018-May-11 22:30N 55°28' E 008°26'0 0.0
2018-May-11 21:57N 55°28' E 008°26'0 0.0
2018-May-11 21:27N 55°28' E 008°26'0 0.0
2018-May-11 20:54N 55°28' E 008°26'0 0.0
2018-May-11 20:24N 55°28' E 008°26'0 0.0
2018-May-11 19:57N 55°28' E 008°26'0 0.0
2018-May-11 19:30N 55°28' E 008°26'0 0.0
2018-May-11 18:57N 55°28' E 008°26'0 0.0
2018-May-11 18:30N 55°28' E 008°26'0 0.0
2018-May-11 18:00N 55°28' E 008°26'0 0.0
2018-May-11 17:27N 55°28' E 008°26'0 0.0
2018-May-11 17:00N 55°28' E 008°26'0 0.0
2018-May-11 16:27N 55°28' E 008°26'0 0.0
2018-May-11 16:00N 55°28' E 008°26'0 0.0
2018-May-11 15:30N 55°28' E 008°26'0 0.0
2018-May-11 15:00N 55°28' E 008°26'0 0.0
2018-May-11 14:30N 55°28' E 008°26'0 0.0
2018-May-11 14:00N 55°28' E 008°26'0 0.0
2018-May-11 13:30N 55°28' E 008°26'0 0.0
2018-May-11 13:00N 55°28' E 008°26'0 0.0
2018-May-11 12:03N 55°28' E 008°26'0 0.0
2018-May-11 11:48N 55°28' E 008°26'0 0.0
2018-May-11 11:21N 55°28' E 008°26'0 0.0
2018-May-11 10:57N 55°28' E 008°26'0 0.0
2018-May-11 10:18N 55°28' E 008°26'0 0.0
2018-May-11 09:51N 55°28' E 008°26'0 0.0
2018-May-11 09:21N 55°28' E 008°26'0 0.0
2018-May-11 08:54N 55°28' E 008°26'0 0.0
2018-May-11 08:21N 55°28' E 008°26'0 0.0
2018-May-11 07:54N 55°28' E 008°26'0 0.0
2018-May-11 07:24N 55°28' E 008°26'0 0.0
2018-May-11 06:39N 55°28' E 008°26'0 0.0
2018-May-11 06:09N 55°28' E 008°26'0 0.0
2018-May-11 05:45N 55°28' E 008°26'0 0.0
2018-May-11 05:24N 55°28' E 008°26'0 0.0
2018-May-11 04:51N 55°28' E 008°26'1 2.6
2018-May-11 04:30N 55°28' E 008°25'4 7.6
2018-May-11 04:00N 55°27' E 008°18'5 9.7
2018-May-11 03:30N 55°24' E 008°11'2 1.9
2018-May-11 02:32N 55°26' E 008°09'0 0.0
2018-May-11 02:08N 55°26' E 008°09'0 0.0
2018-May-11 01:50N 55°26' E 008°09'0 0.0
2018-May-11 01:02N 55°26' E 008°09'0 0.0
2018-May-11 00:50N 55°26' E 008°09'0 0.0
2018-May-10 22:26N 55°26' E 008°09'0 0.0
2018-May-10 21:56N 55°26' E 008°09'0 0.0
2018-May-10 21:26N 55°26' E 008°09'0 0.0
2018-May-10 20:56N 55°26' E 008°09'0 0.0
2018-May-10 20:23N 55°26' E 008°09'0 0.0
2018-May-10 19:44N 55°26' E 008°09'0 0.1
2018-May-10 19:26N 55°26' E 008°09'0 0.0
2018-May-10 18:56N 55°26' E 008°09'0 0.0
2018-May-10 18:05N 55°26' E 008°09'0 0.0
2018-May-10 17:56N 55°26' E 008°09'0 0.0
2018-May-10 17:26N 55°26' E 008°09'0 0.0
2018-May-10 14:14N 55°26' E 008°09'0 0.0
2018-May-10 13:53N 55°26' E 008°09'0 0.1
2018-May-10 13:23N 55°26' E 008°09'0 0.1
2018-May-10 12:05N 55°26' E 008°09'0 0.3
2018-May-10 11:38N 55°26' E 008°09'0 0.1
2018-May-10 11:23N 55°26' E 008°09'0 0.0
2018-May-10 10:05N 55°26' E 008°09'0 0.0
2018-May-10 09:59N 55°26' E 008°09'0 0.0
2018-May-10 09:20N 55°26' E 008°09'0 0.0
2018-May-10 08:56N 55°26' E 008°09'0 0.0
2018-May-10 08:26N 55°26' E 008°09'0 0.0
2018-May-10 07:50N 55°26' E 008°09'0 0.0
2018-May-10 07:26N 55°26' E 008°09'0 0.0
2018-May-10 06:08N 55°26' E 008°09'0 0.0
2018-May-10 05:56N 55°26' E 008°09'  
Track history (hours):
 
Tides and Currents Weather Stations Pressure Air Temp Water Temp Dewpoint Dewpoint Depression Visibility Wind Speed Wind Dir Waves Ship Positions

Diamantgracht

Last reported at 2018-May-20 05:31 UTC. Time now 2018-May-23 03:38 UTC.
Position N 58°21' E 011°54'.

Length 157 m; draft 7.6 m.

Type: Cargo ship. MMSI: 244142000.

Date/timePositionNaut miles runAvg speedWind from/ knotsBaromVisibWave heightAir tempDewpointWater temp
2018-May-20 05:31N 58°21' E 011°54'0 0.1
2018-May-20 05:13N 58°21' E 011°54'0 0.1
2018-May-20 04:58N 58°21' E 011°54'0 0.1
2018-May-20 04:25N 58°21' E 011°54'3 0.1
2018-May-18 07:53N 58°19' E 011°49'610.6
2018-May-18 07:19N 58°13' E 011°51'414.0
2018-May-18 07:00N 58°09' E 011°51'510.8
2018-May-18 06:30N 58°04' E 011°47'510.8
2018-May-18 06:00N 57°59' E 011°44'612.5
2018-May-18 05:30N 57°55' E 011°35'713.4
2018-May-18 05:00N 57°51' E 011°25'4 7.8
2018-May-18 04:30N 57°49' E 011°19'4 8.7
2018-May-18 04:00N 57°46' E 011°12'4 8.8
2018-May-18 03:30N 57°44' E 011°05'4 8.6
2018-May-18 03:00N 57°42' E 010°58'4 8.5
2018-May-18 02:30N 57°41' E 010°50'4 8.7
2018-May-18 02:00N 57°41' E 010°42'4 7.6
2018-May-18 01:30N 57°42' E 010°36'0 0.2
2018-May-18 01:00N 57°42' E 010°35'0 0.0
2018-May-18 00:30N 57°42' E 010°35'0 0.0
2018-May-18 00:00N 57°42' E 010°35'0 0.0
2018-May-17 23:30N 57°42' E 010°35'0 0.0
2018-May-17 22:54N 57°42' E 010°35'0 0.0
2018-May-17 22:30N 57°42' E 010°35'0 0.0
2018-May-17 22:00N 57°42' E 010°35'0 0.0
2018-May-17 21:30N 57°42' E 010°35'0 0.0
2018-May-17 20:54N 57°42' E 010°35'0 0.1
2018-May-17 20:30N 57°42' E 010°35'0 0.0
2018-May-17 20:00N 57°42' E 010°35'0 0.0
2018-May-17 19:30N 57°42' E 010°35'0 0.0
2018-May-17 18:57N 57°42' E 010°35'0 0.0
2018-May-17 18:24N 57°42' E 010°35'0 0.0
2018-May-17 18:00N 57°42' E 010°35'0 0.3
2018-May-17 17:30N 57°42' E 010°36'2 3.4
2018-May-17 17:00N 57°41' E 010°38'3 6.8
2018-May-17 16:30N 57°43' E 010°44'4 8.9
2018-May-17 16:00N 57°47' E 010°41'714.4
2018-May-17 15:30N 57°47' E 010°27'814.1
2018-May-17 14:58N 57°45' E 010°14'16210.8
2018-May-17 00:01N 55°33' E 007°23'0 9.4
2018-May-17 00:00N 55°33' E 007°23'2210.6
2018-May-16 21:58N 55°25' E 007°58'612.1
2018-May-16 21:30N 55°24' E 008°08'510.1
2018-May-16 21:00N 55°26' E 008°16'510.4
2018-May-16 20:30N 55°29' E 008°24'2 2.6
2018-May-16 19:51N 55°28' E 008°26'0 0.0
2018-May-16 18:48N 55°28' E 008°26'0 0.0
2018-May-16 18:21N 55°28' E 008°26'0 0.0
2018-May-16 17:51N 55°28' E 008°26'0 0.0
2018-May-16 17:06N 55°28' E 008°26'0 0.0
2018-May-16 16:51N 55°28' E 008°26'0 0.0
2018-May-16 16:21N 55°28' E 008°26'0 0.0
2018-May-16 15:54N 55°28' E 008°26'0 0.0
2018-May-16 15:24N 55°28' E 008°26'0 0.0
2018-May-16 14:54N 55°28' E 008°26'0 0.0
2018-May-16 14:27N 55°28' E 008°26'0 0.0
2018-May-16 13:42N 55°28' E 008°26'0 0.0
2018-May-16 13:27N 55°28' E 008°26'0 0.0
2018-May-16 13:00N 55°28' E 008°26'0 0.0
2018-May-16 12:21N 55°28' E 008°26'0 0.0
2018-May-16 12:00N 55°28' E 008°26'0 0.0
2018-May-16 11:24N 55°28' E 008°26'0 0.0
2018-May-16 11:00N 55°28' E 008°26'0 0.0
2018-May-16 10:27N 55°28' E 008°26'0 0.0
2018-May-16 09:54N 55°28' E 008°26'0 0.0
2018-May-16 09:15N 55°28' E 008°26'0 0.0
2018-May-16 09:00N 55°28' E 008°26'0 0.0
2018-May-16 08:30N 55°28' E 008°26'0 0.0
2018-May-16 08:00N 55°28' E 008°26'0 0.0
2018-May-16 07:30N 55°28' E 008°26'0 0.0
2018-May-16 06:57N 55°28' E 008°26'0 0.0
2018-May-16 06:30N 55°28' E 008°26'0 0.0
2018-May-16 06:00N 55°28' E 008°26'0 0.0
2018-May-16 05:30N 55°28' E 008°26'0 0.0
2018-May-16 05:00N 55°28' E 008°26'0 0.0
2018-May-16 04:22N 55°28' E 008°26'0 0.0
2018-May-16 03:57N 55°28' E 008°26'0 0.0
2018-May-16 03:27N 55°28' E 008°26'0 0.0
2018-May-16 03:00N 55°28' E 008°26'0 0.0
2018-May-16 02:30N 55°28' E 008°26'0 0.0
2018-May-16 01:54N 55°28' E 008°26'0 0.0
2018-May-16 01:30N 55°28' E 008°26'0 0.0
2018-May-16 01:00N 55°28' E 008°26'0 0.0
2018-May-16 00:27N 55°28' E 008°26'0 0.0
2018-May-15 23:57N 55°28' E 008°26'0 0.0
2018-May-15 23:30N 55°28' E 008°26'0 0.0
2018-May-15 22:57N 55°28' E 008°26'0 0.0
2018-May-15 22:27N 55°28' E 008°26'0 0.0
2018-May-15 21:51N 55°28' E 008°26'0 0.0
2018-May-15 21:30N 55°28' E 008°26'0 0.0
2018-May-15 20:45N 55°28' E 008°26'0 0.0
2018-May-15 20:12N 55°28' E 008°26'0 0.0
2018-May-15 20:00N 55°28' E 008°26'0 0.0
2018-May-15 19:30N 55°28' E 008°26'0 0.0
2018-May-15 19:00N 55°28' E 008°26'0 0.0
2018-May-15 18:27N 55°28' E 008°26'0 0.0
2018-May-15 18:00N 55°28' E 008°26'0 0.0
2018-May-15 17:15N 55°28' E 008°26'0 0.0
2018-May-15 17:00N 55°28' E 008°26'0 0.0
2018-May-15 16:15N 55°28' E 008°26'0 0.0
2018-May-15 15:48N 55°28' E 008°26'0 0.0
2018-May-15 15:18N 55°28' E 008°26'0 0.0
2018-May-15 14:48N 55°28' E 008°26'0 0.0
2018-May-15 14:30N 55°28' E 008°26'0 0.0
2018-May-15 13:48N 55°28' E 008°26'0 0.0
2018-May-15 13:21N 55°28' E 008°26'0 0.0
2018-May-15 12:54N 55°28' E 008°26'0 0.0
2018-May-15 12:18N 55°28' E 008°26'0 0.0
2018-May-15 11:54N 55°28' E 008°26'0 0.0
2018-May-15 11:21N 55°28' E 008°26'0 0.0
2018-May-15 10:54N 55°28' E 008°26'0 0.0
2018-May-15 10:24N 55°28' E 008°26'0 0.0
2018-May-15 09:54N 55°28' E 008°26'0 0.0
2018-May-15 09:27N 55°28' E 008°26'0 0.0
2018-May-15 08:39N 55°28' E 008°26'0 0.0
2018-May-15 08:27N 55°28' E 008°26'0 0.0
2018-May-15 07:42N 55°28' E 008°26'0 0.0
2018-May-15 07:15N 55°28' E 008°26'0 0.0
2018-May-15 06:57N 55°28' E 008°26'0 0.0
2018-May-15 06:27N 55°28' E 008°26'0 0.0
2018-May-15 06:00N 55°28' E 008°26'0 0.0
2018-May-15 05:30N 55°28' E 008°26'0 0.0
2018-May-15 05:00N 55°28' E 008°26'0 0.0
2018-May-15 04:27N 55°28' E 008°26'0 0.0
2018-May-15 03:57N 55°28' E 008°26'0 0.0
2018-May-15 03:27N 55°28' E 008°26'0 0.0
2018-May-15 03:00N 55°28' E 008°26'0 0.0
2018-May-15 02:18N 55°28' E 008°26'0 0.0
2018-May-15 01:45N 55°28' E 008°26'0 0.0
2018-May-15 01:21N 55°28' E 008°26'0 0.0
2018-May-15 00:48N 55°28' E 008°26'0 0.0
2018-May-15 00:18N 55°28' E 008°26'0 0.0
2018-May-14 23:33N 55°28' E 008°26'0 0.0
2018-May-14 23:21N 55°28' E 008°26'0 0.0
2018-May-14 22:51N 55°28' E 008°26'0 0.0
2018-May-14 22:18N 55°28' E 008°26'0 0.0
2018-May-14 21:36N 55°28' E 008°26'0 0.0
2018-May-14 19:51N 55°28' E 008°26'0 0.0
2018-May-14 19:09N 55°28' E 008°26'0 0.0
2018-May-14 18:51N 55°28' E 008°26'0 0.0
2018-May-14 18:24N 55°28' E 008°26'0 0.0
2018-May-14 17:57N 55°28' E 008°26'0 0.0
2018-May-14 17:24N 55°28' E 008°26'0 0.0
2018-May-14 17:00N 55°28' E 008°26'0 0.0
2018-May-14 16:30N 55°28' E 008°26'0 0.0
2018-May-14 15:54N 55°28' E 008°26'0 0.0
2018-May-14 15:30N 55°28' E 008°26'0 0.0
2018-May-14 14:57N 55°28' E 008°26'0 0.0
2018-May-14 14:27N 55°28' E 008°26'0 0.0
2018-May-14 13:48N 55°28' E 008°26'0 0.0
2018-May-14 13:30N 55°28' E 008°26'0 0.0
2018-May-14 13:00N 55°28' E 008°26'0 0.0
2018-May-14 12:18N 55°28' E 008°26'0 0.0
2018-May-14 11:33N 55°28' E 008°26'0 0.0
2018-May-14 11:15N 55°28' E 008°26'0 0.0
2018-May-14 10:51N 55°28' E 008°26'0 0.0
2018-May-14 10:21N 55°28' E 008°26'0 0.0
2018-May-14 09:51N 55°28' E 008°26'0 0.0
2018-May-14 09:18N 55°28' E 008°26'0 0.0
2018-May-14 08:57N 55°28' E 008°26'0 0.0
2018-May-14 08:27N 55°28' E 008°26'0 0.0
2018-May-14 08:00N 55°28' E 008°26'0 0.0
2018-May-14 07:30N 55°28' E 008°26'0 0.0
2018-May-14 07:00N 55°28' E 008°26'0 0.0
2018-May-14 06:27N 55°28' E 008°26'0 0.0
2018-May-14 06:00N 55°28' E 008°26'0 0.0
2018-May-14 05:30N 55°28' E 008°26'0 0.0
2018-May-14 04:57N 55°28' E 008°26'0 0.0
2018-May-14 04:24N 55°28' E 008°26'0 0.0
2018-May-14 03:57N 55°28' E 008°26'0 0.0
2018-May-14 03:27N 55°28' E 008°26'0 0.0
2018-May-14 02:57N 55°28' E 008°26'0 0.0
2018-May-14 02:30N 55°28' E 008°26'0 0.0
2018-May-14 01:57N 55°28' E 008°26'0 0.0
2018-May-14 01:27N 55°28' E 008°26'0 0.0
2018-May-14 01:00N 55°28' E 008°26'0 0.0
2018-May-14 00:27N 55°28' E 008°26'0 0.0
2018-May-13 23:48N 55°28' E 008°26'0 0.0
2018-May-13 23:30N 55°28' E 008°26'0 0.0
2018-May-13 23:00N 55°28' E 008°26'0 0.0
2018-May-13 22:30N 55°28' E 008°26'0 0.0
2018-May-13 22:00N 55°28' E 008°26'0 0.0
2018-May-13 21:30N 55°28' E 008°26'0 0.0
2018-May-13 20:36N 55°28' E 008°26'0 0.0
2018-May-13 20:15N 55°28' E 008°26'0 0.0
2018-May-13 20:00N 55°28' E 008°26'0 0.0
2018-May-13 19:21N 55°28' E 008°26'0 0.0
2018-May-13 18:36N 55°28' E 008°26'0 0.0
2018-May-13 18:09N 55°28' E 008°26'0 0.0
2018-May-13 17:33N 55°28' E 008°26'0 0.0
2018-May-13 17:24N 55°28' E 008°26'0 0.0
2018-May-13 16:54N 55°28' E 008°26'0 0.0
2018-May-13 16:24N 55°28' E 008°26'0 0.0
2018-May-13 15:39N 55°28' E 008°26'0 0.0
2018-May-13 15:12N 55°28' E 008°26'0 0.0
2018-May-13 14:57N 55°28' E 008°26'0 0.0
2018-May-13 14:27N 55°28' E 008°26'0 0.0
2018-May-13 13:57N 55°28' E 008°26'0 0.0
2018-May-13 13:27N 55°28' E 008°26'0 0.0
2018-May-13 12:57N 55°28' E 008°26'0 0.0
2018-May-13 12:27N 55°28' E 008°26'0 0.0
2018-May-13 11:57N 55°28' E 008°26'0 0.0
2018-May-13 11:27N 55°28' E 008°26'0 0.0
2018-May-13 10:45N 55°28' E 008°26'0 0.0
2018-May-13 10:30N 55°28' E 008°26'0 0.0
2018-May-13 09:15N 55°28' E 008°26'0 0.0
2018-May-13 09:00N 55°28' E 008°26'0 0.0
2018-May-13 08:03N 55°28' E 008°26'0 0.0
2018-May-13 08:00N 55°28' E 008°26'0 0.0
2018-May-13 07:30N 55°28' E 008°26'0 0.0
2018-May-13 07:00N 55°28' E 008°26'0 0.0
2018-May-13 06:27N 55°28' E 008°26'0 0.0
2018-May-13 06:00N 55°28' E 008°26'0 0.0
2018-May-13 05:30N 55°28' E 008°26'0 0.0
2018-May-13 05:00N 55°28' E 008°26'0 0.0
2018-May-13 04:21N 55°28' E 008°26'0 0.0
2018-May-13 03:51N 55°28' E 008°26'0 0.0
2018-May-13 03:27N 55°28' E 008°26'0 0.0
2018-May-13 02:54N 55°28' E 008°26'0 0.0
2018-May-13 02:30N 55°28' E 008°26'0 0.0
2018-May-13 01:54N 55°28' E 008°26'0 0.0
2018-May-13 01:30N 55°28' E 008°26'0 0.0
2018-May-13 00:54N 55°28' E 008°26'0 0.0
2018-May-13 00:21N 55°28' E 008°26'0 0.0
2018-May-12 23:54N 55°28' E 008°26'0 0.0
2018-May-12 23:27N 55°28' E 008°26'0 0.0
2018-May-12 22:54N 55°28' E 008°26'0 0.0
2018-May-12 22:24N 55°28' E 008°26'0 0.0
2018-May-12 22:00N 55°28' E 008°26'0 0.0
2018-May-12 21:24N 55°28' E 008°26'0 0.0
2018-May-12 20:54N 55°28' E 008°26'0 0.0
2018-May-12 20:30N 55°28' E 008°26'0 0.0
2018-May-12 19:30N 55°28' E 008°26'0 0.0
2018-May-12 18:48N 55°28' E 008°26'0 0.0
2018-May-12 18:18N 55°28' E 008°26'0 0.0
2018-May-12 17:48N 55°28' E 008°26'0 0.0
2018-May-12 17:30N 55°28' E 008°26'0 0.0
2018-May-12 16:48N 55°28' E 008°26'0 0.0
2018-May-12 16:21N 55°28' E 008°26'0 0.0
2018-May-12 16:00N 55°28' E 008°26'0 0.0
2018-May-12 15:30N 55°28' E 008°26'0 0.0
2018-May-12 15:00N 55°28' E 008°26'0 0.0
2018-May-12 14:21N 55°28' E 008°26'0 0.0
2018-May-12 13:36N 55°28' E 008°26'0 0.0
2018-May-12 13:24N 55°28' E 008°26'0 0.0
2018-May-12 12:51N 55°28' E 008°26'0 0.0
2018-May-12 12:18N 55°28' E 008°26'0 0.0
2018-May-12 11:54N 55°28' E 008°26'0 0.0
2018-May-12 11:24N 55°28' E 008°26'0 0.0
2018-May-12 10:51N 55°28' E 008°26'0 0.0
2018-May-12 10:12N 55°28' E 008°26'0 0.0
2018-May-12 09:54N 55°28' E 008°26'0 0.0
2018-May-12 09:27N 55°28' E 008°26'0 0.0
2018-May-12 08:54N 55°28' E 008°26'0 0.0
2018-May-12 08:24N 55°28' E 008°26'0 0.0
2018-May-12 07:57N 55°28' E 008°26'0 0.0
2018-May-12 07:24N 55°28' E 008°26'0 0.0
2018-May-12 07:00N 55°28' E 008°26'0 0.0
2018-May-12 06:27N 55°28' E 008°26'0 0.0
2018-May-12 06:00N 55°28' E 008°26'0 0.0
2018-May-12 05:30N 55°28' E 008°26'0 0.0
2018-May-12 05:00N 55°28' E 008°26'0 0.0
2018-May-12 04:30N 55°28' E 008°26'0 0.0
2018-May-12 04:00N 55°28' E 008°26'0 0.0
2018-May-12 03:18N 55°28' E 008°26'0 0.0
2018-May-12 03:00N 55°28' E 008°26'0 0.0
2018-May-12 02:18N 55°28' E 008°26'0 0.0
2018-May-12 02:00N 55°28' E 008°26'0 0.0
2018-May-12 01:18N 55°28' E 008°26'0 0.0
2018-May-12 00:48N 55°28' E 008°26'0 0.0
2018-May-12 00:21N 55°28' E 008°26'0 0.0
2018-May-11 23:51N 55°28' E 008°26'0 0.0
2018-May-11 23:21N 55°28' E 008°26'0 0.0
2018-May-11 23:00N 55°28' E 008°26'0 0.0
2018-May-11 22:30N 55°28' E 008°26'0 0.0
2018-May-11 21:57N 55°28' E 008°26'0 0.0
2018-May-11 21:27N 55°28' E 008°26'0 0.0
2018-May-11 20:54N 55°28' E 008°26'0 0.0
2018-May-11 20:24N 55°28' E 008°26'0 0.0
2018-May-11 19:57N 55°28' E 008°26'0 0.0
2018-May-11 19:30N 55°28' E 008°26'0 0.0
2018-May-11 18:57N 55°28' E 008°26'0 0.0
2018-May-11 18:30N 55°28' E 008°26'0 0.0
2018-May-11 18:00N 55°28' E 008°26'0 0.0
2018-May-11 17:27N 55°28' E 008°26'0 0.0
2018-May-11 17:00N 55°28' E 008°26'0 0.0
2018-May-11 16:27N 55°28' E 008°26'0 0.0
2018-May-11 16:00N 55°28' E 008°26'0 0.0
2018-May-11 15:30N 55°28' E 008°26'0 0.0
2018-May-11 15:00N 55°28' E 008°26'0 0.0
2018-May-11 14:30N 55°28' E 008°26'0 0.0
2018-May-11 14:00N 55°28' E 008°26'0 0.0
2018-May-11 13:30N 55°28' E 008°26'0 0.0
2018-May-11 13:00N 55°28' E 008°26'0 0.0
2018-May-11 12:03N 55°28' E 008°26'0 0.0
2018-May-11 11:48N 55°28' E 008°26'0 0.0
2018-May-11 11:21N 55°28' E 008°26'0 0.0
2018-May-11 10:57N 55°28' E 008°26'0 0.0
2018-May-11 10:18N 55°28' E 008°26'0 0.0
2018-May-11 09:51N 55°28' E 008°26'0 0.0
2018-May-11 09:21N 55°28' E 008°26'0 0.0
2018-May-11 08:54N 55°28' E 008°26'0 0.0
2018-May-11 08:21N 55°28' E 008°26'0 0.0
2018-May-11 07:54N 55°28' E 008°26'0 0.0
2018-May-11 07:24N 55°28' E 008°26'0 0.0
2018-May-11 06:39N 55°28' E 008°26'0 0.0
2018-May-11 06:09N 55°28' E 008°26'0 0.0
2018-May-11 05:45N 55°28' E 008°26'0 0.0
2018-May-11 05:24N 55°28' E 008°26'0 0.0
2018-May-11 04:51N 55°28' E 008°26'1 2.6
2018-May-11 04:30N 55°28' E 008°25'4 7.6
2018-May-11 04:00N 55°27' E 008°18'5 9.7
2018-May-11 03:30N 55°24' E 008°11'2 1.9
2018-May-11 02:32N 55°26' E 008°09'0 0.0
2018-May-11 02:08N 55°26' E 008°09'0 0.0
2018-May-11 01:50N 55°26' E 008°09'0 0.0
2018-May-11 01:02N 55°26' E 008°09'0 0.0
2018-May-11 00:50N 55°26' E 008°09'0 0.0
2018-May-10 22:26N 55°26' E 008°09'0 0.0
2018-May-10 21:56N 55°26' E 008°09'0 0.0
2018-May-10 21:26N 55°26' E 008°09'0 0.0
2018-May-10 20:56N 55°26' E 008°09'0 0.0
2018-May-10 20:23N 55°26' E 008°09'0 0.0
2018-May-10 19:44N 55°26' E 008°09'0 0.1
2018-May-10 19:26N 55°26' E 008°09'0 0.0
2018-May-10 18:56N 55°26' E 008°09'0 0.0
2018-May-10 18:05N 55°26' E 008°09'0 0.0
2018-May-10 17:56N 55°26' E 008°09'0 0.0
2018-May-10 17:26N 55°26' E 008°09'0 0.0
2018-May-10 14:14N 55°26' E 008°09'0 0.0
2018-May-10 13:53N 55°26' E 008°09'0 0.1
2018-May-10 13:23N 55°26' E 008°09'0 0.1
2018-May-10 12:05N 55°26' E 008°09'0 0.3
2018-May-10 11:38N 55°26' E 008°09'0 0.1
2018-May-10 11:23N 55°26' E 008°09'0 0.0
2018-May-10 10:05N 55°26' E 008°09'0 0.0
2018-May-10 09:59N 55°26' E 008°09'0 0.0
2018-May-10 09:20N 55°26' E 008°09'0 0.0
2018-May-10 08:56N 55°26' E 008°09'0 0.0
2018-May-10 08:26N 55°26' E 008°09'0 0.0
2018-May-10 07:50N 55°26' E 008°09'0 0.0
2018-May-10 07:26N 55°26' E 008°09'0 0.0
2018-May-10 06:08N 55°26' E 008°09'0 0.0
2018-May-10 05:56N 55°26' E 008°09'  

Dump ship's entire track history